Avon Lake, Iowa
Current Conditions -  °F | °C
As of 7:01 AM on Friday 24 Oct 2014 (Local Time) from KDSM Reporting Station
Moderate Fog Moderate Fog  
Wind Chill: 59°   Ceiling: 100
Heat Index: 59°   Visibility: 0.12mi
Dew Point: 57°   Wind: 10mph
Humidity: 93%   Direction: 190°S
Pressure: 29.98"   Gusts: NA
Location:  41.4707°N, 93.4797°W
Report Text: KDSM 241201Z 19009KT 1/8SM R31/1800V3500FT FG VV001 15/14 A2998 RMK AO2 SFC VIS 1/2 T01500139 $
Loading
Personal Weather Stations






























Interactive Weather Map
Tropical Storm Tracking
New forecast layout! Learn more

10-Day Weather Forecast

Advertisements
Track Severe Weather on mobile